sensor_id;sensor_type;location;lat;lon;timestamp;temperature;humidity
73570;SHT30;61850;54.980;73.298;2022-07-21T00:02:04;17.08;80.31
73570;SHT30;61850;54.980;73.298;2022-07-21T00:04:31;17.14;80.27
73570;SHT30;61850;54.980;73.298;2022-07-21T00:06:57;17.18;80.21
73570;SHT30;61850;54.980;73.298;2022-07-21T00:09:23;17.21;80.38
73570;SHT30;61850;54.980;73.298;2022-07-21T00:14:47;17.36;80.02
73570;SHT30;61850;54.980;73.298;2022-07-21T00:17:16;17.45;79.99
73570;SHT30;61850;54.980;73.298;2022-07-21T00:25:54;17.54;80.00
73570;SHT30;61850;54.980;73.298;2022-07-21T00:28:20;17.62;79.67
73570;SHT30;61850;54.980;73.298;2022-07-21T00:30:47;17.59;80.24
73570;SHT30;61850;54.980;73.298;2022-07-21T00:33:13;17.68;79.94
73570;SHT30;61850;54.980;73.298;2022-07-21T00:35:39;17.79;79.65
73570;SHT30;61850;54.980;73.298;2022-07-21T00:38:06;17.87;79.58
73570;SHT30;61850;54.980;73.298;2022-07-21T00:40:32;18.02;78.95
73570;SHT30;61850;54.980;73.298;2022-07-21T00:42:58;18.12;78.84
73570;SHT30;61850;54.980;73.298;2022-07-21T00:45:25;18.24;78.53
73570;SHT30;61850;54.980;73.298;2022-07-21T00:47:51;18.27;78.47
73570;SHT30;61850;54.980;73.298;2022-07-21T00:50:19;18.27;78.35
73570;SHT30;61850;54.980;73.298;2022-07-21T00:52:46;18.29;78.36
73570;SHT30;61850;54.980;73.298;2022-07-21T00:55:16;18.24;78.45
73570;SHT30;61850;54.980;73.298;2022-07-21T00:57:43;18.41;77.76
73570;SHT30;61850;54.980;73.298;2022-07-21T01:00:17;18.61;77.05
73570;SHT30;61850;54.980;73.298;2022-07-21T01:02:44;18.72;76.59
73570;SHT30;61850;54.980;73.298;2022-07-21T01:05:13;18.75;76.52
73570;SHT30;61850;54.980;73.298;2022-07-21T01:07:46;18.87;76.11
73570;SHT30;61850;54.980;73.298;2022-07-21T01:10:15;18.82;76.04
73570;SHT30;61850;54.980;73.298;2022-07-21T01:12:43;18.87;75.74
73570;SHT30;61850;54.980;73.298;2022-07-21T01:15:11;18.92;75.45
73570;SHT30;61850;54.980;73.298;2022-07-21T01:17:38;19.02;75.16
73570;SHT30;61850;54.980;73.298;2022-07-21T01:20:07;19.12;74.97
73570;SHT30;61850;54.980;73.298;2022-07-21T01:22:37;19.08;75.09
73570;SHT30;61850;54.980;73.298;2022-07-21T01:25:04;19.06;75.19
73570;SHT30;61850;54.980;73.298;2022-07-21T01:27:31;19.10;75.15
73570;SHT30;61850;54.980;73.298;2022-07-21T01:29:58;19.17;74.70
73570;SHT30;61850;54.980;73.298;2022-07-21T01:32:25;19.17;74.67
73570;SHT30;61850;54.980;73.298;2022-07-21T01:34:52;19.19;74.63
73570;SHT30;61850;54.980;73.298;2022-07-21T01:37:23;19.20;74.53
73570;SHT30;61850;54.980;73.298;2022-07-21T01:39:53;19.27;74.39
73570;SHT30;61850;54.980;73.298;2022-07-21T01:42:37;19.37;73.86
73570;SHT30;61850;54.980;73.298;2022-07-21T01:45:14;19.50;73.32
73570;SHT30;61850;54.980;73.298;2022-07-21T01:47:40;19.58;73.11
73570;SHT30;61850;54.980;73.298;2022-07-21T01:50:07;19.56;73.24
73570;SHT30;61850;54.980;73.298;2022-07-21T01:52:33;19.58;73.33
73570;SHT30;61850;54.980;73.298;2022-07-21T01:55:00;19.63;73.16
73570;SHT30;61850;54.980;73.298;2022-07-21T01:57:26;19.66;73.06
73570;SHT30;61850;54.980;73.298;2022-07-21T01:59:52;19.73;72.60
73570;SHT30;61850;54.980;73.298;2022-07-21T02:02:18;19.75;72.41
73570;SHT30;61850;54.980;73.298;2022-07-21T02:04:48;19.88;72.30
73570;SHT30;61850;54.980;73.298;2022-07-21T02:07:15;19.89;72.14
73570;SHT30;61850;54.980;73.298;2022-07-21T02:09:42;20.02;71.82
73570;SHT30;61850;54.980;73.298;2022-07-21T02:12:08;20.18;71.24
73570;SHT30;61850;54.980;73.298;2022-07-21T02:14:36;20.16;71.20
73570;SHT30;61850;54.980;73.298;2022-07-21T02:17:05;20.16;71.52
73570;SHT30;61850;54.980;73.298;2022-07-21T02:19:31;20.22;71.35
73570;SHT30;61850;54.980;73.298;2022-07-21T02:21:57;20.32;71.39
73570;SHT30;61850;54.980;73.298;2022-07-21T02:24:34;20.21;71.81
73570;SHT30;61850;54.980;73.298;2022-07-21T02:27:01;20.26;71.71
73570;SHT30;61850;54.980;73.298;2022-07-21T02:29:27;20.28;71.71
73570;SHT30;61850;54.980;73.298;2022-07-21T02:31:53;20.22;71.68
73570;SHT30;61850;54.980;73.298;2022-07-21T02:34:20;20.22;71.77
73570;SHT30;61850;54.980;73.298;2022-07-21T02:36:46;20.18;72.05
73570;SHT30;61850;54.980;73.298;2022-07-21T02:39:12;20.04;72.38
73570;SHT30;61850;54.980;73.298;2022-07-21T02:41:38;20.04;72.92
73570;SHT30;61850;54.980;73.298;2022-07-21T02:44:05;19.92;73.31
73570;SHT30;61850;54.980;73.298;2022-07-21T02:46:31;19.94;73.12
73570;SHT30;61850;54.980;73.298;2022-07-21T02:48:57;20.05;73.33
73570;SHT30;61850;54.980;73.298;2022-07-21T02:51:23;19.89;73.41
73570;SHT30;61850;54.980;73.298;2022-07-21T02:53:49;19.91;73.44
73570;SHT30;61850;54.980;73.298;2022-07-21T02:56:16;19.92;72.85
73570;SHT30;61850;54.980;73.298;2022-07-21T02:58:42;20.01;72.35
73570;SHT30;61850;54.980;73.298;2022-07-21T03:01:08;20.08;72.17
73570;SHT30;61850;54.980;73.298;2022-07-21T03:03:36;20.08;71.89
73570;SHT30;61850;54.980;73.298;2022-07-21T03:06:03;20.06;72.07
73570;SHT30;61850;54.980;73.298;2022-07-21T03:08:31;20.21;71.78
73570;SHT30;61850;54.980;73.298;2022-07-21T03:10:59;20.29;71.39
73570;SHT30;61850;54.980;73.298;2022-07-21T03:13:26;20.21;71.62
73570;SHT30;61850;54.980;73.298;2022-07-21T03:15:53;20.16;71.99
73570;SHT30;61850;54.980;73.298;2022-07-21T03:18:19;20.19;71.39
73570;SHT30;61850;54.980;73.298;2022-07-21T03:20:46;20.14;71.53
73570;SHT30;61850;54.980;73.298;2022-07-21T03:23:12;20.26;71.55
73570;SHT30;61850;54.980;73.298;2022-07-21T03:25:47;20.33;71.40
73570;SHT30;61850;54.980;73.298;2022-07-21T03:28:27;20.49;71.54
73570;SHT30;61850;54.980;73.298;2022-07-21T03:30:53;20.54;71.29
73570;SHT30;61850;54.980;73.298;2022-07-21T03:33:20;20.63;71.03
73570;SHT30;61850;54.980;73.298;2022-07-21T03:35:46;20.57;71.49
73570;SHT30;61850;54.980;73.298;2022-07-21T03:38:13;20.73;71.14
73570;SHT30;61850;54.980;73.298;2022-07-21T03:40:39;20.83;71.15
73570;SHT30;61850;54.980;73.298;2022-07-21T03:43:06;20.91;71.14
73570;SHT30;61850;54.980;73.298;2022-07-21T03:45:34;20.98;70.65
73570;SHT30;61850;54.980;73.298;2022-07-21T03:48:04;21.12;70.40
73570;SHT30;61850;54.980;73.298;2022-07-21T03:50:31;21.18;69.27
73570;SHT30;61850;54.980;73.298;2022-07-21T03:52:59;21.25;69.06
73570;SHT30;61850;54.980;73.298;2022-07-21T03:55:26;21.34;68.74
73570;SHT30;61850;54.980;73.298;2022-07-21T03:57:55;21.29;68.37
73570;SHT30;61850;54.980;73.298;2022-07-21T04:02:57;21.63;68.00
73570;SHT30;61850;54.980;73.298;2022-07-21T04:05:34;21.75;66.49
73570;SHT30;61850;54.980;73.298;2022-07-21T04:08:01;21.80;66.53
73570;SHT30;61850;54.980;73.298;2022-07-21T04:10:29;22.04;65.63
73570;SHT30;61850;54.980;73.298;2022-07-21T04:13:07;22.20;65.26
73570;SHT30;61850;54.980;73.298;2022-07-21T04:15:35;22.27;65.29
73570;SHT30;61850;54.980;73.298;2022-07-21T04:18:02;22.45;65.00
73570;SHT30;61850;54.980;73.298;2022-07-21T04:20:28;22.51;64.63
73570;SHT30;61850;54.980;73.298;2022-07-21T04:22:56;22.37;64.70
73570;SHT30;61850;54.980;73.298;2022-07-21T04:25:22;22.40;64.90
73570;SHT30;61850;54.980;73.298;2022-07-21T04:28:05;22.31;64.89
73570;SHT30;61850;54.980;73.298;2022-07-21T04:30:32;22.35;64.68
73570;SHT30;61850;54.980;73.298;2022-07-21T04:32:58;22.40;64.50
73570;SHT30;61850;54.980;73.298;2022-07-21T04:35:35;22.37;64.78
73570;SHT30;61850;54.980;73.298;2022-07-21T04:38:01;22.55;64.25
73570;SHT30;61850;54.980;73.298;2022-07-21T04:40:27;22.54;63.52
73570;SHT30;61850;54.980;73.298;2022-07-21T04:42:53;22.59;63.67
73570;SHT30;61850;54.980;73.298;2022-07-21T04:45:20;22.82;63.10
73570;SHT30;61850;54.980;73.298;2022-07-21T04:47:54;22.81;62.65
73570;SHT30;61850;54.980;73.298;2022-07-21T04:50:24;22.96;62.06
73570;SHT30;61850;54.980;73.298;2022-07-21T04:52:51;22.96;60.93
73570;SHT30;61850;54.980;73.298;2022-07-21T04:55:18;22.95;61.11
73570;SHT30;61850;54.980;73.298;2022-07-21T04:57:55;23.10;60.73
73570;SHT30;61850;54.980;73.298;2022-07-21T05:00:25;23.49;60.62
73570;SHT30;61850;54.980;73.298;2022-07-21T05:02:52;23.62;58.64
73570;SHT30;61850;54.980;73.298;2022-07-21T05:05:19;23.65;58.78
73570;SHT30;61850;54.980;73.298;2022-07-21T05:07:49;23.92;58.88
73570;SHT30;61850;54.980;73.298;2022-07-21T05:10:16;23.79;58.64
73570;SHT30;61850;54.980;73.298;2022-07-21T05:12:43;23.91;58.73
73570;SHT30;61850;54.980;73.298;2022-07-21T05:15:10;23.89;58.68
73570;SHT30;61850;54.980;73.298;2022-07-21T05:17:40;24.02;58.29
73570;SHT30;61850;54.980;73.298;2022-07-21T05:20:07;24.18;58.11
73570;SHT30;61850;54.980;73.298;2022-07-21T05:22:34;24.13;58.11
73570;SHT30;61850;54.980;73.298;2022-07-21T05:25:02;24.09;58.01
73570;SHT30;61850;54.980;73.298;2022-07-21T05:27:28;24.12;58.31
73570;SHT30;61850;54.980;73.298;2022-07-21T05:30:00;24.22;58.04
73570;SHT30;61850;54.980;73.298;2022-07-21T05:32:26;24.39;57.42
73570;SHT30;61850;54.980;73.298;2022-07-21T05:34:52;24.41;57.52
73570;SHT30;61850;54.980;73.298;2022-07-21T05:37:18;24.63;56.59
73570;SHT30;61850;54.980;73.298;2022-07-21T05:39:44;24.66;56.54
73570;SHT30;61850;54.980;73.298;2022-07-21T05:42:10;24.83;56.10
73570;SHT30;61850;54.980;73.298;2022-07-21T05:44:38;24.95;55.76
73570;SHT30;61850;54.980;73.298;2022-07-21T05:47:05;24.83;55.00
73570;SHT30;61850;54.980;73.298;2022-07-21T05:49:31;24.60;55.77
73570;SHT30;61850;54.980;73.298;2022-07-21T05:52:06;24.53;56.61
73570;SHT30;61850;54.980;73.298;2022-07-21T05:54:32;24.50;56.26
73570;SHT30;61850;54.980;73.298;2022-07-21T05:56:59;24.46;56.50
73570;SHT30;61850;54.980;73.298;2022-07-21T05:59:25;24.71;55.74
73570;SHT30;61850;54.980;73.298;2022-07-21T06:01:52;24.87;55.14
73570;SHT30;61850;54.980;73.298;2022-07-21T06:04:28;24.91;54.81
73570;SHT30;61850;54.980;73.298;2022-07-21T06:06:54;24.90;54.85
73570;SHT30;61850;54.980;73.298;2022-07-21T06:09:20;25.07;54.42
73570;SHT30;61850;54.980;73.298;2022-07-21T06:11:47;25.03;54.86
73570;SHT30;61850;54.980;73.298;2022-07-21T06:14:15;25.04;54.60
73570;SHT30;61850;54.980;73.298;2022-07-21T06:16:42;24.97;55.15
73570;SHT30;61850;54.980;73.298;2022-07-21T06:19:12;25.04;55.01
73570;SHT30;61850;54.980;73.298;2022-07-21T06:21:38;25.19;54.37
73570;SHT30;61850;54.980;73.298;2022-07-21T06:24:07;25.01;54.52
73570;SHT30;61850;54.980;73.298;2022-07-21T06:26:38;25.24;54.38
73570;SHT30;61850;54.980;73.298;2022-07-21T06:29:06;25.53;53.44
73570;SHT30;61850;54.980;73.298;2022-07-21T06:31:33;25.59;51.79
73570;SHT30;61850;54.980;73.298;2022-07-21T06:33:59;25.53;51.61
73570;SHT30;61850;54.980;73.298;2022-07-21T06:36:25;25.38;52.35
73570;SHT30;61850;54.980;73.298;2022-07-21T06:38:51;25.53;51.18
73570;SHT30;61850;54.980;73.298;2022-07-21T06:41:18;25.67;50.75
73570;SHT30;61850;54.980;73.298;2022-07-21T06:43:44;25.79;50.56
73570;SHT30;61850;54.980;73.298;2022-07-21T06:46:10;25.74;51.43
73570;SHT30;61850;54.980;73.298;2022-07-21T06:48:36;26.03;49.89
73570;SHT30;61850;54.980;73.298;2022-07-21T06:51:03;25.93;50.22
73570;SHT30;61850;54.980;73.298;2022-07-21T06:53:29;26.31;49.80
73570;SHT30;61850;54.980;73.298;2022-07-21T06:55:55;26.08;49.90
73570;SHT30;61850;54.980;73.298;2022-07-21T06:58:23;26.03;50.12
73570;SHT30;61850;54.980;73.298;2022-07-21T07:00:51;26.32;49.77
73570;SHT30;61850;54.980;73.298;2022-07-21T07:03:18;26.49;49.96
73570;SHT30;61850;54.980;73.298;2022-07-21T07:05:46;26.49;49.33
73570;SHT30;61850;54.980;73.298;2022-07-21T07:08:13;26.69;48.39
73570;SHT30;61850;54.980;73.298;2022-07-21T07:10:40;26.86;47.80
73570;SHT30;61850;54.980;73.298;2022-07-21T07:13:07;26.76;47.85
73570;SHT30;61850;54.980;73.298;2022-07-21T07:15:33;26.07;48.55
73570;SHT30;61850;54.980;73.298;2022-07-21T07:17:59;26.34;48.01
73570;SHT30;61850;54.980;73.298;2022-07-21T07:20:25;26.10;48.59
73570;SHT30;61850;54.980;73.298;2022-07-21T07:22:52;25.86;49.32
73570;SHT30;61850;54.980;73.298;2022-07-21T07:25:18;25.61;49.83
73570;SHT30;61850;54.980;73.298;2022-07-21T07:27:49;25.47;50.28
73570;SHT30;61850;54.980;73.298;2022-07-21T07:30:16;25.38;50.44
73570;SHT30;61850;54.980;73.298;2022-07-21T07:32:43;25.34;50.73
73570;SHT30;61850;54.980;73.298;2022-07-21T07:35:11;25.26;50.73
73570;SHT30;61850;54.980;73.298;2022-07-21T07:37:40;25.07;50.92
73570;SHT30;61850;54.980;73.298;2022-07-21T07:40:10;24.68;54.54
73570;SHT30;61850;54.980;73.298;2022-07-21T07:42:37;23.67;58.30
73570;SHT30;61850;54.980;73.298;2022-07-21T07:45:04;23.03;60.71
73570;SHT30;61850;54.980;73.298;2022-07-21T07:47:35;22.72;61.82
73570;SHT30;61850;54.980;73.298;2022-07-21T07:50:01;22.65;60.75
73570;SHT30;61850;54.980;73.298;2022-07-21T07:52:28;22.61;60.84
73570;SHT30;61850;54.980;73.298;2022-07-21T07:54:59;22.62;61.63
73570;SHT30;61850;54.980;73.298;2022-07-21T08:00:34;22.85;60.75
73570;SHT30;61850;54.980;73.298;2022-07-21T08:03:01;23.13;61.28
73570;SHT30;61850;54.980;73.298;2022-07-21T08:05:28;23.31;61.62
73570;SHT30;61850;54.980;73.298;2022-07-21T08:07:54;23.53;60.70
73570;SHT30;61850;54.980;73.298;2022-07-21T08:10:21;23.54;59.43
73570;SHT30;61850;54.980;73.298;2022-07-21T08:12:48;23.60;60.40
73570;SHT30;61850;54.980;73.298;2022-07-21T08:15:15;23.65;60.78
73570;SHT30;61850;54.980;73.298;2022-07-21T08:35:57;25.80;53.70
73570;SHT30;61850;54.980;73.298;2022-07-21T08:38:33;25.94;52.68
73570;SHT30;61850;54.980;73.298;2022-07-21T08:41:04;25.98;52.87
73570;SHT30;61850;54.980;73.298;2022-07-21T08:43:33;26.04;52.10
73570;SHT30;61850;54.980;73.298;2022-07-21T08:46:05;26.90;49.21
73570;SHT30;61850;54.980;73.298;2022-07-21T08:48:33;27.24;49.54
73570;SHT30;61850;54.980;73.298;2022-07-21T08:50:59;27.29;48.72
73570;SHT30;61850;54.980;73.298;2022-07-21T08:53:26;27.07;49.11
73570;SHT30;61850;54.980;73.298;2022-07-21T08:56:03;27.33;49.21
73570;SHT30;61850;54.980;73.298;2022-07-21T08:58:39;28.26;46.55
73570;SHT30;61850;54.980;73.298;2022-07-21T09:01:06;28.94;44.70
73570;SHT30;61850;54.980;73.298;2022-07-21T09:03:37;29.62;44.22
73570;SHT30;61850;54.980;73.298;2022-07-21T09:08:45;30.10;41.21
73570;SHT30;61850;54.980;73.298;2022-07-21T09:11:23;30.62;40.27
73570;SHT30;61850;54.980;73.298;2022-07-21T09:14:12;30.90;39.58
73570;SHT30;61850;54.980;73.298;2022-07-21T09:16:41;31.14;39.24
73570;SHT30;61850;54.980;73.298;2022-07-21T09:19:28;30.86;39.05
73570;SHT30;61850;54.980;73.298;2022-07-21T09:22:05;30.66;38.56
73570;SHT30;61850;54.980;73.298;2022-07-21T09:24:34;29.66;36.92
73570;SHT30;61850;54.980;73.298;2022-07-21T09:29:53;29.63;35.02
73570;SHT30;61850;54.980;73.298;2022-07-21T09:32:27;29.21;35.54
73570;SHT30;61850;54.980;73.298;2022-07-21T09:35:03;28.37;36.05
73570;SHT30;61850;54.980;73.298;2022-07-21T09:37:30;28.73;36.59
73570;SHT30;61850;54.980;73.298;2022-07-21T09:39:58;28.23;36.81
73570;SHT30;61850;54.980;73.298;2022-07-21T09:42:32;28.17;38.07
73570;SHT30;61850;54.980;73.298;2022-07-21T09:45:14;27.98;38.17
73570;SHT30;61850;54.980;73.298;2022-07-21T09:47:43;28.01;37.89
73570;SHT30;61850;54.980;73.298;2022-07-21T09:50:21;29.01;34.90
73570;SHT30;61850;54.980;73.298;2022-07-21T09:52:47;29.79;34.18
73570;SHT30;61850;54.980;73.298;2022-07-21T09:55:16;30.47;31.97
73570;SHT30;61850;54.980;73.298;2022-07-21T09:57:44;31.10;30.96
73570;SHT30;61850;54.980;73.298;2022-07-21T10:00:15;31.44;31.06
73570;SHT30;61850;54.980;73.298;2022-07-21T10:02:42;31.72;29.85
73570;SHT30;61850;54.980;73.298;2022-07-21T10:05:15;31.17;29.27
73570;SHT30;61850;54.980;73.298;2022-07-21T10:07:53;31.37;29.24
73570;SHT30;61850;54.980;73.298;2022-07-21T10:10:19;32.02;28.64
73570;SHT30;61850;54.980;73.298;2022-07-21T10:12:47;31.93;27.98
73570;SHT30;61850;54.980;73.298;2022-07-21T10:15:14;31.20;28.79
73570;SHT30;61850;54.980;73.298;2022-07-21T10:17:41;31.24;28.85
73570;SHT30;61850;54.980;73.298;2022-07-21T10:20:21;31.60;28.79
73570;SHT30;61850;54.980;73.298;2022-07-21T10:25:43;30.64;30.17
73570;SHT30;61850;54.980;73.298;2022-07-21T10:28:19;31.55;28.21
73570;SHT30;61850;54.980;73.298;2022-07-21T10:30:54;31.98;27.61
73570;SHT30;61850;54.980;73.298;2022-07-21T10:41:42;32.78;27.78
73570;SHT30;61850;54.980;73.298;2022-07-21T10:47:23;29.62;32.46
73570;SHT30;61850;54.980;73.298;2022-07-21T10:50:00;28.80;32.70
73570;SHT30;61850;54.980;73.298;2022-07-21T10:55:16;27.24;36.51
73570;SHT30;61850;54.980;73.298;2022-07-21T10:57:45;26.93;37.03
73570;SHT30;61850;54.980;73.298;2022-07-21T11:03:03;26.49;41.12
73570;SHT30;61850;54.980;73.298;2022-07-21T11:05:33;26.83;39.93
73570;SHT30;61850;54.980;73.298;2022-07-21T11:11:33;28.67;35.88
73570;SHT30;61850;54.980;73.298;2022-07-21T11:14:13;29.08;36.02
73570;SHT30;61850;54.980;73.298;2022-07-21T11:19:40;29.19;36.88
73570;SHT30;61850;54.980;73.298;2022-07-21T11:22:25;30.04;34.74
73570;SHT30;61850;54.980;73.298;2022-07-21T11:25:04;30.51;31.85
73570;SHT30;61850;54.980;73.298;2022-07-21T11:27:35;30.78;31.71
73570;SHT30;61850;54.980;73.298;2022-07-21T11:30:05;30.90;31.88
73570;SHT30;61850;54.980;73.298;2022-07-21T11:32:33;31.43;31.30
73570;SHT30;61850;54.980;73.298;2022-07-21T11:35:02;31.95;30.58
73570;SHT30;61850;54.980;73.298;2022-07-21T11:37:31;31.75;30.48
73570;SHT30;61850;54.980;73.298;2022-07-21T11:39:59;31.71;30.92
73570;SHT30;61850;54.980;73.298;2022-07-21T11:42:27;32.08;30.90
73570;SHT30;61850;54.980;73.298;2022-07-21T11:44:54;32.50;30.09
73570;SHT30;61850;54.980;73.298;2022-07-21T11:47:21;32.71;29.94
73570;SHT30;61850;54.980;73.298;2022-07-21T11:49:57;32.76;29.98
73570;SHT30;61850;54.980;73.298;2022-07-21T11:52:33;32.70;29.44
73570;SHT30;61850;54.980;73.298;2022-07-21T11:55:05;31.65;31.23
73570;SHT30;61850;54.980;73.298;2022-07-21T11:57:32;31.98;29.70
73570;SHT30;61850;54.980;73.298;2022-07-21T12:00:00;31.82;28.43
73570;SHT30;61850;54.980;73.298;2022-07-21T12:02:29;31.68;28.07
73570;SHT30;61850;54.980;73.298;2022-07-21T12:05:00;31.68;27.79
73570;SHT30;61850;54.980;73.298;2022-07-21T12:07:36;31.95;26.67
73570;SHT30;61850;54.980;73.298;2022-07-21T12:10:16;32.32;26.12
73570;SHT30;61850;54.980;73.298;2022-07-21T12:12:48;32.63;26.11
73570;SHT30;61850;54.980;73.298;2022-07-21T12:15:23;32.91;25.57
73570;SHT30;61850;54.980;73.298;2022-07-21T12:17:55;32.19;25.61
73570;SHT30;61850;54.980;73.298;2022-07-21T12:20:46;32.22;26.01
73570;SHT30;61850;54.980;73.298;2022-07-21T12:23:26;31.33;26.62
73570;SHT30;61850;54.980;73.298;2022-07-21T12:25:55;30.21;28.36
73570;SHT30;61850;54.980;73.298;2022-07-21T12:31:15;29.96;29.68
73570;SHT30;61850;54.980;73.298;2022-07-21T12:33:42;29.62;29.98
73570;SHT30;61850;54.980;73.298;2022-07-21T12:36:09;29.62;30.70
73570;SHT30;61850;54.980;73.298;2022-07-21T12:38:47;29.18;33.00
73570;SHT30;61850;54.980;73.298;2022-07-21T12:41:16;29.73;33.03
73570;SHT30;61850;54.980;73.298;2022-07-21T12:43:53;29.28;34.13
73570;SHT30;61850;54.980;73.298;2022-07-21T12:46:34;29.02;34.98
73570;SHT30;61850;54.980;73.298;2022-07-21T12:49:08;29.89;33.23
73570;SHT30;61850;54.980;73.298;2022-07-21T12:51:36;30.68;31.10
73570;SHT30;61850;54.980;73.298;2022-07-21T12:54:03;31.12;29.38
73570;SHT30;61850;54.980;73.298;2022-07-21T12:56:31;31.51;28.46
73570;SHT30;61850;54.980;73.298;2022-07-21T12:58:59;31.60;27.38
73570;SHT30;61850;54.980;73.298;2022-07-21T13:01:28;31.20;30.29
73570;SHT30;61850;54.980;73.298;2022-07-21T13:03:55;30.75;31.89
73570;SHT30;61850;54.980;73.298;2022-07-21T13:06:24;31.09;31.83
73570;SHT30;61850;54.980;73.298;2022-07-21T13:09:03;30.87;32.56
73570;SHT30;61850;54.980;73.298;2022-07-21T13:11:34;30.99;32.75
73570;SHT30;61850;54.980;73.298;2022-07-21T13:14:00;31.26;32.89
73570;SHT30;61850;54.980;73.298;2022-07-21T13:16:32;31.30;33.01
73570;SHT30;61850;54.980;73.298;2022-07-21T13:18:59;31.26;33.31
73570;SHT30;61850;54.980;73.298;2022-07-21T13:21:25;31.23;33.59
73570;SHT30;61850;54.980;73.298;2022-07-21T13:24:01;31.48;33.33
73570;SHT30;61850;54.980;73.298;2022-07-21T13:26:38;31.77;32.92
73570;SHT30;61850;54.980;73.298;2022-07-21T13:29:04;31.57;33.34
73570;SHT30;61850;54.980;73.298;2022-07-21T13:31:34;31.71;32.51
73570;SHT30;61850;54.980;73.298;2022-07-21T13:34:05;31.62;32.65
73570;SHT30;61850;54.980;73.298;2022-07-21T13:36:37;31.43;31.99
73570;SHT30;61850;54.980;73.298;2022-07-21T13:39:05;30.99;31.77
73570;SHT30;61850;54.980;73.298;2022-07-21T13:41:33;30.14;33.22
73570;SHT30;61850;54.980;73.298;2022-07-21T13:44:00;29.49;33.98
73570;SHT30;61850;54.980;73.298;2022-07-21T13:46:27;28.61;34.94
73570;SHT30;61850;54.980;73.298;2022-07-21T13:48:53;27.94;36.04
73570;SHT30;61850;54.980;73.298;2022-07-21T13:51:20;27.46;37.01
73570;SHT30;61850;54.980;73.298;2022-07-21T13:53:48;27.24;38.04
73570;SHT30;61850;54.980;73.298;2022-07-21T13:56:16;27.19;37.68
73570;SHT30;61850;54.980;73.298;2022-07-21T13:58:43;26.79;37.16
73570;SHT30;61850;54.980;73.298;2022-07-21T14:01:11;26.62;37.56
73570;SHT30;61850;54.980;73.298;2022-07-21T14:03:40;26.41;37.78
73570;SHT30;61850;54.980;73.298;2022-07-21T14:06:07;26.17;38.03
73570;SHT30;61850;54.980;73.298;2022-07-21T14:08:33;25.87;38.49
73570;SHT30;61850;54.980;73.298;2022-07-21T14:11:03;25.73;39.03
73570;SHT30;61850;54.980;73.298;2022-07-21T14:13:31;25.55;39.36
73570;SHT30;61850;54.980;73.298;2022-07-21T14:16:02;25.45;39.58
73570;SHT30;61850;54.980;73.298;2022-07-21T14:18:30;25.36;40.05
73570;SHT30;61850;54.980;73.298;2022-07-21T14:20:57;25.28;40.36
73570;SHT30;61850;54.980;73.298;2022-07-21T14:23:28;25.12;40.86
73570;SHT30;61850;54.980;73.298;2022-07-21T14:25:54;24.99;41.32
73570;SHT30;61850;54.980;73.298;2022-07-21T14:28:21;24.88;41.83
73570;SHT30;61850;54.980;73.298;2022-07-21T14:30:48;24.78;42.23
73570;SHT30;61850;54.980;73.298;2022-07-21T14:33:14;24.60;42.90
73570;SHT30;61850;54.980;73.298;2022-07-21T14:35:49;24.46;43.48
73570;SHT30;61850;54.980;73.298;2022-07-21T14:38:16;24.35;44.00
73570;SHT30;61850;54.980;73.298;2022-07-21T14:40:43;24.16;44.34
73570;SHT30;61850;54.980;73.298;2022-07-21T14:43:10;24.12;44.74
73570;SHT30;61850;54.980;73.298;2022-07-21T14:45:36;24.08;44.77
73570;SHT30;61850;54.980;73.298;2022-07-21T14:48:04;24.01;45.06
73570;SHT30;61850;54.980;73.298;2022-07-21T14:50:34;23.94;45.48
73570;SHT30;61850;54.980;73.298;2022-07-21T14:53:02;23.91;45.66
73570;SHT30;61850;54.980;73.298;2022-07-21T14:55:32;23.85;46.09
73570;SHT30;61850;54.980;73.298;2022-07-21T14:57:59;23.81;46.27
73570;SHT30;61850;54.980;73.298;2022-07-21T15:00:30;23.75;46.58
73570;SHT30;61850;54.980;73.298;2022-07-21T15:02:56;23.62;46.95
73570;SHT30;61850;54.980;73.298;2022-07-21T15:05:23;23.58;47.27
73570;SHT30;61850;54.980;73.298;2022-07-21T15:07:50;23.57;47.46
73570;SHT30;61850;54.980;73.298;2022-07-21T15:10:27;23.53;47.82
73570;SHT30;61850;54.980;73.298;2022-07-21T15:12:54;23.46;48.26
73570;SHT30;61850;54.980;73.298;2022-07-21T15:15:35;23.28;49.20
73570;SHT30;61850;54.980;73.298;2022-07-21T15:18:12;23.17;49.75
73570;SHT30;61850;54.980;73.298;2022-07-21T15:20:39;22.30;57.58
73570;SHT30;61850;54.980;73.298;2022-07-21T15:23:09;19.41;69.69
73570;SHT30;61850;54.980;73.298;2022-07-21T15:25:46;18.43;72.00
73570;SHT30;61850;54.980;73.298;2022-07-21T15:28:13;17.89;76.74
73570;SHT30;61850;54.980;73.298;2022-07-21T15:30:40;17.79;78.55
73570;SHT30;61850;54.980;73.298;2022-07-21T15:33:07;17.86;79.89
73570;SHT30;61850;54.980;73.298;2022-07-21T15:35:34;17.89;80.69
73570;SHT30;61850;54.980;73.298;2022-07-21T15:38:10;17.87;79.84
73570;SHT30;61850;54.980;73.298;2022-07-21T15:40:41;17.86;80.18
73570;SHT30;61850;54.980;73.298;2022-07-21T15:43:12;17.90;80.35
73570;SHT30;61850;54.980;73.298;2022-07-21T15:45:38;17.92;81.39
73570;SHT30;61850;54.980;73.298;2022-07-21T15:48:05;17.92;81.42
73570;SHT30;61850;54.980;73.298;2022-07-21T15:53:38;17.96;81.57
73570;SHT30;61850;54.980;73.298;2022-07-21T15:56:05;17.99;81.90
73570;SHT30;61850;54.980;73.298;2022-07-21T15:58:37;18.02;82.26
73570;SHT30;61850;54.980;73.298;2022-07-21T16:01:36;18.03;82.50
73570;SHT30;61850;54.980;73.298;2022-07-21T16:04:03;18.07;82.88
73570;SHT30;61850;54.980;73.298;2022-07-21T16:06:41;18.06;82.13
73570;SHT30;61850;54.980;73.298;2022-07-21T16:09:10;18.06;81.44
73570;SHT30;61850;54.980;73.298;2022-07-21T16:11:43;18.10;82.40
73570;SHT30;61850;54.980;73.298;2022-07-21T16:14:10;18.13;84.32
73570;SHT30;61850;54.980;73.298;2022-07-21T16:16:44;18.12;82.81
73570;SHT30;61850;54.980;73.298;2022-07-21T16:19:16;18.13;82.17
73570;SHT30;61850;54.980;73.298;2022-07-21T16:21:44;18.17;82.37
73570;SHT30;61850;54.980;73.298;2022-07-21T16:24:10;18.10;82.00
73570;SHT30;61850;54.980;73.298;2022-07-21T16:26:37;18.09;82.17
73570;SHT30;61850;54.980;73.298;2022-07-21T16:29:04;18.03;82.45
73570;SHT30;61850;54.980;73.298;2022-07-21T16:31:36;17.92;81.82
73570;SHT30;61850;54.980;73.298;2022-07-21T16:34:04;17.82;81.78
73570;SHT30;61850;54.980;73.298;2022-07-21T16:36:39;17.69;81.34
73570;SHT30;61850;54.980;73.298;2022-07-21T16:39:05;17.62;80.71